sensor_id;sensor_type;location;lat;lon;timestamp;P1;durP1;ratioP1;P2;durP2;ratioP2
8411;SDS011;4243;49.296;11.348;2023-04-03T00:01:19;116.07;;;2.97;;
8411;SDS011;4243;49.296;11.348;2023-04-03T00:03:47;115.67;;;3.00;;
8411;SDS011;4243;49.296;11.348;2023-04-03T00:06:14;115.60;;;3.00;;
8411;SDS011;4243;49.296;11.348;2023-04-03T00:08:41;115.87;;;3.03;;
8411;SDS011;4243;49.296;11.348;2023-04-03T00:11:09;115.40;;;3.10;;
8411;SDS011;4243;49.296;11.348;2023-04-03T00:13:37;115.57;;;3.07;;
8411;SDS011;4243;49.296;11.348;2023-04-03T00:16:06;115.07;;;3.10;;
8411;SDS011;4243;49.296;11.348;2023-04-03T00:18:35;115.23;;;3.10;;
8411;SDS011;4243;49.296;11.348;2023-04-03T00:21:04;115.60;;;3.03;;
8411;SDS011;4243;49.296;11.348;2023-04-03T00:23:32;115.10;;;3.10;;
8411;SDS011;4243;49.296;11.348;2023-04-03T00:26:00;115.03;;;3.07;;
8411;SDS011;4243;49.296;11.348;2023-04-03T00:28:28;114.13;;;3.10;;
8411;SDS011;4243;49.296;11.348;2023-04-03T00:30:55;115.00;;;3.07;;
8411;SDS011;4243;49.296;11.348;2023-04-03T00:33:22;115.50;;;3.07;;
8411;SDS011;4243;49.296;11.348;2023-04-03T00:35:50;115.30;;;3.10;;
8411;SDS011;4243;49.296;11.348;2023-04-03T00:38:18;115.70;;;3.10;;
8411;SDS011;4243;49.296;11.348;2023-04-03T00:40:46;115.50;;;3.07;;
8411;SDS011;4243;49.296;11.348;2023-04-03T00:43:17;115.67;;;3.17;;
8411;SDS011;4243;49.296;11.348;2023-04-03T00:45:53;114.90;;;3.07;;
8411;SDS011;4243;49.296;11.348;2023-04-03T00:48:32;114.47;;;3.07;;
8411;SDS011;4243;49.296;11.348;2023-04-03T00:51:13;113.97;;;3.13;;
8411;SDS011;4243;49.296;11.348;2023-04-03T00:53:50;115.10;;;3.10;;
8411;SDS011;4243;49.296;11.348;2023-04-03T00:56:26;115.40;;;3.10;;
8411;SDS011;4243;49.296;11.348;2023-04-03T00:58:57;114.50;;;3.10;;
8411;SDS011;4243;49.296;11.348;2023-04-03T01:01:44;114.27;;;3.10;;
8411;SDS011;4243;49.296;11.348;2023-04-03T01:04:26;114.70;;;3.07;;
8411;SDS011;4243;49.296;11.348;2023-04-03T01:07:14;115.20;;;3.00;;
8411;SDS011;4243;49.296;11.348;2023-04-03T01:09:59;115.40;;;3.10;;
8411;SDS011;4243;49.296;11.348;2023-04-03T01:12:36;115.10;;;3.07;;
8411;SDS011;4243;49.296;11.348;2023-04-03T01:15:14;114.17;;;3.10;;
8411;SDS011;4243;49.296;11.348;2023-04-03T01:17:53;115.20;;;3.03;;
8411;SDS011;4243;49.296;11.348;2023-04-03T01:25:41;115.07;;;3.03;;
8411;SDS011;4243;49.296;11.348;2023-04-03T01:33:47;115.27;;;3.10;;
8411;SDS011;4243;49.296;11.348;2023-04-03T01:36:16;115.00;;;3.10;;
8411;SDS011;4243;49.296;11.348;2023-04-03T01:38:48;114.53;;;3.10;;
8411;SDS011;4243;49.296;11.348;2023-04-03T01:41:16;114.70;;;3.10;;
8411;SDS011;4243;49.296;11.348;2023-04-03T01:43:45;115.27;;;3.07;;
8411;SDS011;4243;49.296;11.348;2023-04-03T01:46:15;115.67;;;3.10;;
8411;SDS011;4243;49.296;11.348;2023-04-03T01:48:43;114.83;;;3.10;;
8411;SDS011;4243;49.296;11.348;2023-04-03T01:51:11;114.20;;;3.10;;
8411;SDS011;4243;49.296;11.348;2023-04-03T01:53:38;114.27;;;3.07;;
8411;SDS011;4243;49.296;11.348;2023-04-03T01:56:06;114.73;;;3.03;;
8411;SDS011;4243;49.296;11.348;2023-04-03T01:58:33;114.83;;;3.07;;
8411;SDS011;4243;49.296;11.348;2023-04-03T02:01:01;114.50;;;3.10;;
8411;SDS011;4243;49.296;11.348;2023-04-03T02:03:29;114.97;;;3.07;;
8411;SDS011;4243;49.296;11.348;2023-04-03T02:05:57;115.27;;;3.10;;
8411;SDS011;4243;49.296;11.348;2023-04-03T02:08:25;114.90;;;3.07;;
8411;SDS011;4243;49.296;11.348;2023-04-03T02:10:52;114.37;;;3.17;;
8411;SDS011;4243;49.296;11.348;2023-04-03T02:13:19;114.90;;;3.10;;
8411;SDS011;4243;49.296;11.348;2023-04-03T02:15:46;114.17;;;3.10;;
8411;SDS011;4243;49.296;11.348;2023-04-03T02:18:15;113.87;;;3.10;;
8411;SDS011;4243;49.296;11.348;2023-04-03T02:20:43;114.40;;;3.10;;
8411;SDS011;4243;49.296;11.348;2023-04-03T02:23:10;113.87;;;3.10;;
8411;SDS011;4243;49.296;11.348;2023-04-03T02:25:37;115.00;;;3.13;;
8411;SDS011;4243;49.296;11.348;2023-04-03T02:28:05;115.20;;;3.10;;
8411;SDS011;4243;49.296;11.348;2023-04-03T02:30:32;115.20;;;3.10;;
8411;SDS011;4243;49.296;11.348;2023-04-03T02:33:00;114.70;;;3.13;;
8411;SDS011;4243;49.296;11.348;2023-04-03T02:35:27;114.70;;;3.10;;
8411;SDS011;4243;49.296;11.348;2023-04-03T02:37:56;114.37;;;3.17;;
8411;SDS011;4243;49.296;11.348;2023-04-03T02:40:23;114.80;;;3.13;;
8411;SDS011;4243;49.296;11.348;2023-04-03T02:42:54;114.60;;;3.20;;
8411;SDS011;4243;49.296;11.348;2023-04-03T02:45:23;114.90;;;3.23;;
8411;SDS011;4243;49.296;11.348;2023-04-03T02:47:50;114.77;;;3.27;;
8411;SDS011;4243;49.296;11.348;2023-04-03T02:50:17;115.17;;;3.20;;
8411;SDS011;4243;49.296;11.348;2023-04-03T02:52:44;114.43;;;3.13;;
8411;SDS011;4243;49.296;11.348;2023-04-03T02:55:13;115.17;;;3.20;;
8411;SDS011;4243;49.296;11.348;2023-04-03T02:57:43;113.97;;;3.17;;
8411;SDS011;4243;49.296;11.348;2023-04-03T03:00:12;115.00;;;3.20;;
8411;SDS011;4243;49.296;11.348;2023-04-03T03:02:40;115.13;;;3.30;;
8411;SDS011;4243;49.296;11.348;2023-04-03T03:05:08;114.80;;;3.17;;
8411;SDS011;4243;49.296;11.348;2023-04-03T03:07:35;115.00;;;3.20;;
8411;SDS011;4243;49.296;11.348;2023-04-03T03:10:02;115.20;;;3.20;;
8411;SDS011;4243;49.296;11.348;2023-04-03T03:12:30;114.93;;;3.20;;
8411;SDS011;4243;49.296;11.348;2023-04-03T03:14:59;114.90;;;3.20;;
8411;SDS011;4243;49.296;11.348;2023-04-03T03:17:26;115.37;;;3.20;;
8411;SDS011;4243;49.296;11.348;2023-04-03T03:19:53;114.87;;;3.27;;
8411;SDS011;4243;49.296;11.348;2023-04-03T03:22:20;115.47;;;3.20;;
8411;SDS011;4243;49.296;11.348;2023-04-03T03:24:47;114.97;;;3.20;;
8411;SDS011;4243;49.296;11.348;2023-04-03T03:27:14;115.60;;;3.20;;
8411;SDS011;4243;49.296;11.348;2023-04-03T03:29:42;114.77;;;3.17;;
8411;SDS011;4243;49.296;11.348;2023-04-03T03:32:11;114.83;;;3.20;;
8411;SDS011;4243;49.296;11.348;2023-04-03T03:34:38;115.17;;;3.17;;
8411;SDS011;4243;49.296;11.348;2023-04-03T03:37:06;114.47;;;3.13;;
8411;SDS011;4243;49.296;11.348;2023-04-03T03:39:33;114.77;;;3.20;;
8411;SDS011;4243;49.296;11.348;2023-04-03T03:42:01;114.63;;;3.20;;
8411;SDS011;4243;49.296;11.348;2023-04-03T03:44:28;114.40;;;3.27;;
8411;SDS011;4243;49.296;11.348;2023-04-03T03:46:56;115.07;;;3.20;;
8411;SDS011;4243;49.296;11.348;2023-04-03T03:49:24;114.40;;;3.23;;
8411;SDS011;4243;49.296;11.348;2023-04-03T03:51:51;115.67;;;3.30;;
8411;SDS011;4243;49.296;11.348;2023-04-03T03:54:18;114.70;;;3.27;;
8411;SDS011;4243;49.296;11.348;2023-04-03T03:56:46;114.57;;;3.17;;
8411;SDS011;4243;49.296;11.348;2023-04-03T03:59:13;114.37;;;3.10;;
8411;SDS011;4243;49.296;11.348;2023-04-03T04:01:40;114.20;;;3.10;;
8411;SDS011;4243;49.296;11.348;2023-04-03T04:04:08;114.70;;;3.13;;
8411;SDS011;4243;49.296;11.348;2023-04-03T04:06:36;114.80;;;3.17;;
8411;SDS011;4243;49.296;11.348;2023-04-03T04:09:06;113.27;;;3.10;;
8411;SDS011;4243;49.296;11.348;2023-04-03T04:11:35;114.43;;;3.10;;
8411;SDS011;4243;49.296;11.348;2023-04-03T04:14:02;114.80;;;3.10;;
8411;SDS011;4243;49.296;11.348;2023-04-03T04:16:29;115.30;;;3.10;;
8411;SDS011;4243;49.296;11.348;2023-04-03T04:19:02;114.60;;;3.10;;
8411;SDS011;4243;49.296;11.348;2023-04-03T04:21:32;114.30;;;3.20;;
8411;SDS011;4243;49.296;11.348;2023-04-03T04:23:59;115.07;;;3.10;;
8411;SDS011;4243;49.296;11.348;2023-04-03T04:26:27;114.30;;;3.13;;
8411;SDS011;4243;49.296;11.348;2023-04-03T04:28:54;114.33;;;3.10;;
8411;SDS011;4243;49.296;11.348;2023-04-03T04:31:21;114.43;;;3.20;;
8411;SDS011;4243;49.296;11.348;2023-04-03T04:33:49;114.77;;;3.10;;
8411;SDS011;4243;49.296;11.348;2023-04-03T04:36:17;114.43;;;3.13;;
8411;SDS011;4243;49.296;11.348;2023-04-03T04:38:46;113.73;;;3.07;;
8411;SDS011;4243;49.296;11.348;2023-04-03T04:41:13;113.90;;;3.07;;
8411;SDS011;4243;49.296;11.348;2023-04-03T04:43:43;115.30;;;3.10;;
8411;SDS011;4243;49.296;11.348;2023-04-03T04:46:10;115.07;;;3.07;;
8411;SDS011;4243;49.296;11.348;2023-04-03T04:48:45;114.97;;;3.07;;
8411;SDS011;4243;49.296;11.348;2023-04-03T04:51:13;114.03;;;3.10;;
8411;SDS011;4243;49.296;11.348;2023-04-03T04:53:41;114.00;;;3.10;;
8411;SDS011;4243;49.296;11.348;2023-04-03T04:56:12;114.60;;;3.10;;
8411;SDS011;4243;49.296;11.348;2023-04-03T04:58:39;114.83;;;3.03;;
8411;SDS011;4243;49.296;11.348;2023-04-03T05:01:08;114.57;;;3.10;;
8411;SDS011;4243;49.296;11.348;2023-04-03T05:03:51;113.97;;;3.03;;
8411;SDS011;4243;49.296;11.348;2023-04-03T05:06:21;114.00;;;3.00;;
8411;SDS011;4243;49.296;11.348;2023-04-03T05:08:48;114.10;;;3.07;;
8411;SDS011;4243;49.296;11.348;2023-04-03T05:11:16;113.17;;;3.07;;
8411;SDS011;4243;49.296;11.348;2023-04-03T05:13:45;114.77;;;3.03;;
8411;SDS011;4243;49.296;11.348;2023-04-03T05:16:12;113.97;;;3.10;;
8411;SDS011;4243;49.296;11.348;2023-04-03T05:18:39;114.97;;;3.13;;
8411;SDS011;4243;49.296;11.348;2023-04-03T05:21:11;114.40;;;3.00;;
8411;SDS011;4243;49.296;11.348;2023-04-03T05:23:39;112.67;;;3.10;;
8411;SDS011;4243;49.296;11.348;2023-04-03T05:26:06;113.70;;;3.00;;
8411;SDS011;4243;49.296;11.348;2023-04-03T05:28:33;114.57;;;3.03;;
8411;SDS011;4243;49.296;11.348;2023-04-03T05:31:01;114.20;;;3.00;;
8411;SDS011;4243;49.296;11.348;2023-04-03T05:33:33;114.50;;;3.03;;
8411;SDS011;4243;49.296;11.348;2023-04-03T05:36:03;114.57;;;2.97;;
8411;SDS011;4243;49.296;11.348;2023-04-03T05:38:37;114.67;;;3.00;;
8411;SDS011;4243;49.296;11.348;2023-04-03T05:41:05;114.77;;;3.00;;
8411;SDS011;4243;49.296;11.348;2023-04-03T05:43:33;114.47;;;3.00;;
8411;SDS011;4243;49.296;11.348;2023-04-03T05:46:03;113.90;;;2.93;;
8411;SDS011;4243;49.296;11.348;2023-04-03T05:48:40;114.67;;;2.97;;
8411;SDS011;4243;49.296;11.348;2023-04-03T05:51:15;114.00;;;3.00;;
8411;SDS011;4243;49.296;11.348;2023-04-03T05:53:58;114.20;;;3.00;;
8411;SDS011;4243;49.296;11.348;2023-04-03T05:56:37;114.43;;;3.00;;
8411;SDS011;4243;49.296;11.348;2023-04-03T05:59:05;114.00;;;3.07;;
8411;SDS011;4243;49.296;11.348;2023-04-03T06:01:32;114.57;;;3.00;;
8411;SDS011;4243;49.296;11.348;2023-04-03T06:04:00;114.50;;;2.97;;
8411;SDS011;4243;49.296;11.348;2023-04-03T06:06:49;114.10;;;2.97;;
8411;SDS011;4243;49.296;11.348;2023-04-03T06:09:25;114.63;;;3.00;;
8411;SDS011;4243;49.296;11.348;2023-04-03T06:11:58;114.20;;;2.97;;
8411;SDS011;4243;49.296;11.348;2023-04-03T06:14:27;114.57;;;2.90;;
8411;SDS011;4243;49.296;11.348;2023-04-03T06:16:54;112.67;;;2.87;;
8411;SDS011;4243;49.296;11.348;2023-04-03T06:19:22;114.23;;;2.93;;
8411;SDS011;4243;49.296;11.348;2023-04-03T06:21:54;113.80;;;2.90;;
8411;SDS011;4243;49.296;11.348;2023-04-03T06:24:23;114.63;;;2.90;;
8411;SDS011;4243;49.296;11.348;2023-04-03T06:26:51;112.87;;;2.93;;
8411;SDS011;4243;49.296;11.348;2023-04-03T06:29:19;114.20;;;2.80;;
8411;SDS011;4243;49.296;11.348;2023-04-03T06:31:47;112.97;;;2.90;;
8411;SDS011;4243;49.296;11.348;2023-04-03T06:34:15;114.77;;;2.97;;
8411;SDS011;4243;49.296;11.348;2023-04-03T06:36:44;114.47;;;2.90;;
8411;SDS011;4243;49.296;11.348;2023-04-03T06:39:13;114.10;;;2.90;;
8411;SDS011;4243;49.296;11.348;2023-04-03T06:41:46;114.30;;;2.97;;
8411;SDS011;4243;49.296;11.348;2023-04-03T06:44:15;114.20;;;2.90;;
8411;SDS011;4243;49.296;11.348;2023-04-03T06:46:43;114.87;;;2.83;;
8411;SDS011;4243;49.296;11.348;2023-04-03T06:49:11;114.23;;;2.80;;
8411;SDS011;4243;49.296;11.348;2023-04-03T06:51:39;114.87;;;2.87;;
8411;SDS011;4243;49.296;11.348;2023-04-03T06:54:06;113.57;;;2.83;;
8411;SDS011;4243;49.296;11.348;2023-04-03T06:56:34;114.30;;;2.80;;
8411;SDS011;4243;49.296;11.348;2023-04-03T06:59:02;114.97;;;2.80;;
8411;SDS011;4243;49.296;11.348;2023-04-03T07:01:30;114.40;;;2.80;;
8411;SDS011;4243;49.296;11.348;2023-04-03T07:03:57;115.27;;;2.87;;
8411;SDS011;4243;49.296;11.348;2023-04-03T07:06:24;114.77;;;2.80;;
8411;SDS011;4243;49.296;11.348;2023-04-03T07:08:54;114.60;;;2.90;;
8411;SDS011;4243;49.296;11.348;2023-04-03T07:11:22;114.50;;;2.87;;
8411;SDS011;4243;49.296;11.348;2023-04-03T07:13:50;114.70;;;2.90;;
8411;SDS011;4243;49.296;11.348;2023-04-03T07:16:17;114.70;;;2.83;;
8411;SDS011;4243;49.296;11.348;2023-04-03T07:18:45;114.50;;;2.80;;
8411;SDS011;4243;49.296;11.348;2023-04-03T07:21:12;114.17;;;2.80;;
8411;SDS011;4243;49.296;11.348;2023-04-03T07:23:40;115.27;;;2.80;;
8411;SDS011;4243;49.296;11.348;2023-04-03T07:26:07;114.97;;;2.80;;
8411;SDS011;4243;49.296;11.348;2023-04-03T07:28:35;114.60;;;2.80;;
8411;SDS011;4243;49.296;11.348;2023-04-03T07:31:05;114.80;;;2.87;;
8411;SDS011;4243;49.296;11.348;2023-04-03T07:33:39;115.20;;;2.83;;
8411;SDS011;4243;49.296;11.348;2023-04-03T07:36:08;111.73;;;2.80;;
8411;SDS011;4243;49.296;11.348;2023-04-03T07:38:36;113.77;;;2.80;;
8411;SDS011;4243;49.296;11.348;2023-04-03T07:41:04;115.40;;;2.80;;
8411;SDS011;4243;49.296;11.348;2023-04-03T07:43:31;114.50;;;2.80;;
8411;SDS011;4243;49.296;11.348;2023-04-03T07:46:00;115.17;;;2.80;;
8411;SDS011;4243;49.296;11.348;2023-04-03T07:48:28;114.90;;;2.80;;
8411;SDS011;4243;49.296;11.348;2023-04-03T07:50:58;114.17;;;2.67;;
8411;SDS011;4243;49.296;11.348;2023-04-03T07:53:28;113.57;;;2.70;;
8411;SDS011;4243;49.296;11.348;2023-04-03T07:55:56;114.80;;;2.70;;
8411;SDS011;4243;49.296;11.348;2023-04-03T07:58:25;115.03;;;2.67;;
8411;SDS011;4243;49.296;11.348;2023-04-03T08:03:49;114.70;;;2.70;;
8411;SDS011;4243;49.296;11.348;2023-04-03T08:06:17;114.70;;;2.73;;
8411;SDS011;4243;49.296;11.348;2023-04-03T08:08:58;115.30;;;2.70;;
8411;SDS011;4243;49.296;11.348;2023-04-03T08:11:25;115.30;;;2.70;;
8411;SDS011;4243;49.296;11.348;2023-04-03T08:13:52;115.20;;;2.70;;
8411;SDS011;4243;49.296;11.348;2023-04-03T08:16:21;115.60;;;2.70;;
8411;SDS011;4243;49.296;11.348;2023-04-03T08:18:53;115.47;;;2.63;;
8411;SDS011;4243;49.296;11.348;2023-04-03T08:21:21;115.13;;;2.70;;
8411;SDS011;4243;49.296;11.348;2023-04-03T08:23:51;115.47;;;2.57;;
8411;SDS011;4243;49.296;11.348;2023-04-03T08:26:19;115.57;;;2.57;;
8411;SDS011;4243;49.296;11.348;2023-04-03T08:28:48;114.80;;;2.60;;
8411;SDS011;4243;49.296;11.348;2023-04-03T08:31:16;115.37;;;2.60;;
8411;SDS011;4243;49.296;11.348;2023-04-03T08:33:46;115.77;;;2.60;;
8411;SDS011;4243;49.296;11.348;2023-04-03T08:36:23;114.80;;;2.63;;
8411;SDS011;4243;49.296;11.348;2023-04-03T08:38:54;115.40;;;2.60;;
8411;SDS011;4243;49.296;11.348;2023-04-03T08:41:31;115.57;;;2.67;;
8411;SDS011;4243;49.296;11.348;2023-04-03T08:47:28;116.00;;;2.63;;
8411;SDS011;4243;49.296;11.348;2023-04-03T08:50:15;115.73;;;2.60;;
8411;SDS011;4243;49.296;11.348;2023-04-03T08:52:49;115.27;;;2.57;;
8411;SDS011;4243;49.296;11.348;2023-04-03T08:55:31;115.07;;;2.40;;
8411;SDS011;4243;49.296;11.348;2023-04-03T08:58:19;114.60;;;2.40;;
8411;SDS011;4243;49.296;11.348;2023-04-03T09:01:00;115.00;;;2.40;;
8411;SDS011;4243;49.296;11.348;2023-04-03T09:03:47;115.07;;;2.50;;
8411;SDS011;4243;49.296;11.348;2023-04-03T09:06:15;113.93;;;2.60;;
8411;SDS011;4243;49.296;11.348;2023-04-03T09:11:54;115.10;;;2.57;;
8411;SDS011;4243;49.296;11.348;2023-04-03T09:18:05;114.80;;;2.53;;
8411;SDS011;4243;49.296;11.348;2023-04-03T09:20:54;113.97;;;2.43;;
8411;SDS011;4243;49.296;11.348;2023-04-03T09:23:45;115.50;;;2.53;;
8411;SDS011;4243;49.296;11.348;2023-04-03T09:26:19;114.43;;;2.60;;
8411;SDS011;4243;49.296;11.348;2023-04-03T09:28:53;114.90;;;2.60;;
8411;SDS011;4243;49.296;11.348;2023-04-03T09:31:27;113.57;;;2.53;;
8411;SDS011;4243;49.296;11.348;2023-04-03T09:34:30;115.43;;;2.50;;
8411;SDS011;4243;49.296;11.348;2023-04-03T09:37:03;114.47;;;2.50;;
8411;SDS011;4243;49.296;11.348;2023-04-03T09:39:48;114.80;;;2.60;;
8411;SDS011;4243;49.296;11.348;2023-04-03T09:42:22;114.83;;;2.57;;
8411;SDS011;4243;49.296;11.348;2023-04-03T09:44:55;115.20;;;2.60;;
8411;SDS011;4243;49.296;11.348;2023-04-03T09:53:35;115.47;;;2.50;;
8411;SDS011;4243;49.296;11.348;2023-04-03T09:58:49;115.37;;;2.50;;
8411;SDS011;4243;49.296;11.348;2023-04-03T10:01:31;114.67;;;2.50;;
8411;SDS011;4243;49.296;11.348;2023-04-03T10:04:17;114.87;;;2.50;;
8411;SDS011;4243;49.296;11.348;2023-04-03T10:06:50;114.37;;;2.60;;
8411;SDS011;4243;49.296;11.348;2023-04-03T10:09:22;114.60;;;2.63;;
8411;SDS011;4243;49.296;11.348;2023-04-03T10:12:00;114.57;;;2.60;;
8411;SDS011;4243;49.296;11.348;2023-04-03T10:14:32;114.23;;;2.60;;
8411;SDS011;4243;49.296;11.348;2023-04-03T10:17:14;115.17;;;2.60;;
8411;SDS011;4243;49.296;11.348;2023-04-03T10:19:53;114.70;;;2.57;;
8411;SDS011;4243;49.296;11.348;2023-04-03T10:26:27;114.30;;;2.53;;
8411;SDS011;4243;49.296;11.348;2023-04-03T10:29:36;114.87;;;2.60;;
8411;SDS011;4243;49.296;11.348;2023-04-03T10:38:30;115.07;;;2.60;;
8411;SDS011;4243;49.296;11.348;2023-04-03T10:41:39;114.40;;;2.50;;
8411;SDS011;4243;49.296;11.348;2023-04-03T10:44:59;113.67;;;2.40;;
8411;SDS011;4243;49.296;11.348;2023-04-03T10:54:12;114.70;;;2.37;;
8411;SDS011;4243;49.296;11.348;2023-04-03T10:56:52;115.00;;;2.37;;
8411;SDS011;4243;49.296;11.348;2023-04-03T11:02:31;114.77;;;2.40;;
8411;SDS011;4243;49.296;11.348;2023-04-03T11:08:10;114.57;;;2.37;;
8411;SDS011;4243;49.296;11.348;2023-04-03T11:10:58;114.90;;;2.30;;
8411;SDS011;4243;49.296;11.348;2023-04-03T11:16:28;114.80;;;2.00;;
8411;SDS011;4243;49.296;11.348;2023-04-03T11:22:27;114.77;;;2.10;;
8411;SDS011;4243;49.296;11.348;2023-04-03T11:25:13;115.27;;;2.13;;
8411;SDS011;4243;49.296;11.348;2023-04-03T11:27:54;115.27;;;2.20;;
8411;SDS011;4243;49.296;11.348;2023-04-03T11:34:05;115.20;;;2.20;;
8411;SDS011;4243;49.296;11.348;2023-04-03T11:37:34;114.20;;;2.20;;
8411;SDS011;4243;49.296;11.348;2023-04-03T11:40:22;115.37;;;2.37;;
8411;SDS011;4243;49.296;11.348;2023-04-03T11:45:28;115.07;;;2.27;;
8411;SDS011;4243;49.296;11.348;2023-04-03T11:50:50;115.07;;;2.20;;
8411;SDS011;4243;49.296;11.348;2023-04-03T12:01:59;114.97;;;2.20;;
8411;SDS011;4243;49.296;11.348;2023-04-03T12:04:26;115.20;;;2.40;;
8411;SDS011;4243;49.296;11.348;2023-04-03T12:07:08;114.10;;;2.30;;
8411;SDS011;4243;49.296;11.348;2023-04-03T12:12:29;114.00;;;2.30;;
8411;SDS011;4243;49.296;11.348;2023-04-03T12:15:23;113.87;;;2.13;;
8411;SDS011;4243;49.296;11.348;2023-04-03T12:21:24;115.57;;;2.10;;
8411;SDS011;4243;49.296;11.348;2023-04-03T12:38:29;115.07;;;2.03;;
8411;SDS011;4243;49.296;11.348;2023-04-03T12:47:25;114.80;;;2.00;;
8411;SDS011;4243;49.296;11.348;2023-04-03T12:50:04;115.40;;;2.13;;
8411;SDS011;4243;49.296;11.348;2023-04-03T12:52:52;115.40;;;2.30;;
8411;SDS011;4243;49.296;11.348;2023-04-03T12:55:27;115.50;;;2.40;;
8411;SDS011;4243;49.296;11.348;2023-04-03T12:57:54;115.37;;;2.37;;
8411;SDS011;4243;49.296;11.348;2023-04-03T13:00:29;115.70;;;2.70;;
8411;SDS011;4243;49.296;11.348;2023-04-03T13:03:03;115.07;;;2.97;;
8411;SDS011;4243;49.296;11.348;2023-04-03T13:05:48;115.10;;;2.60;;
8411;SDS011;4243;49.296;11.348;2023-04-03T13:08:15;115.47;;;2.50;;
8411;SDS011;4243;49.296;11.348;2023-04-03T13:10:59;114.83;;;2.10;;
8411;SDS011;4243;49.296;11.348;2023-04-03T13:13:39;114.90;;;2.20;;
8411;SDS011;4243;49.296;11.348;2023-04-03T13:16:08;115.10;;;2.17;;
8411;SDS011;4243;49.296;11.348;2023-04-03T13:18:37;115.57;;;2.37;;
8411;SDS011;4243;49.296;11.348;2023-04-03T13:21:06;115.47;;;2.17;;
8411;SDS011;4243;49.296;11.348;2023-04-03T13:23:43;115.50;;;2.13;;
8411;SDS011;4243;49.296;11.348;2023-04-03T13:26:24;115.77;;;2.27;;
8411;SDS011;4243;49.296;11.348;2023-04-03T13:29:02;114.90;;;2.10;;
8411;SDS011;4243;49.296;11.348;2023-04-03T13:31:56;114.90;;;2.00;;
8411;SDS011;4243;49.296;11.348;2023-04-03T13:34:28;115.27;;;2.03;;
8411;SDS011;4243;49.296;11.348;2023-04-03T13:37:04;115.27;;;2.07;;
8411;SDS011;4243;49.296;11.348;2023-04-03T13:39:35;115.30;;;2.20;;
8411;SDS011;4243;49.296;11.348;2023-04-03T13:42:15;115.67;;;2.10;;
8411;SDS011;4243;49.296;11.348;2023-04-03T13:47:50;115.73;;;2.40;;
8411;SDS011;4243;49.296;11.348;2023-04-03T13:50:53;116.20;;;2.43;;
8411;SDS011;4243;49.296;11.348;2023-04-03T13:56:32;115.50;;;2.10;;
8411;SDS011;4243;49.296;11.348;2023-04-03T14:01:46;114.73;;;2.10;;
8411;SDS011;4243;49.296;11.348;2023-04-03T14:04:22;115.10;;;2.10;;
8411;SDS011;4243;49.296;11.348;2023-04-03T14:07:22;115.77;;;2.30;;
8411;SDS011;4243;49.296;11.348;2023-04-03T14:09:50;114.80;;;2.27;;
8411;SDS011;4243;49.296;11.348;2023-04-03T14:12:33;114.17;;;2.33;;
8411;SDS011;4243;49.296;11.348;2023-04-03T14:15:18;115.30;;;2.40;;
8411;SDS011;4243;49.296;11.348;2023-04-03T14:17:53;114.87;;;2.30;;
8411;SDS011;4243;49.296;11.348;2023-04-03T14:20:22;114.93;;;2.10;;
8411;SDS011;4243;49.296;11.348;2023-04-03T14:22:54;115.20;;;2.10;;
8411;SDS011;4243;49.296;11.348;2023-04-03T14:25:21;115.37;;;2.07;;
8411;SDS011;4243;49.296;11.348;2023-04-03T14:27:50;115.57;;;2.20;;
8411;SDS011;4243;49.296;11.348;2023-04-03T14:30:27;115.53;;;2.30;;
8411;SDS011;4243;49.296;11.348;2023-04-03T14:32:59;115.97;;;2.60;;
8411;SDS011;4243;49.296;11.348;2023-04-03T14:35:27;116.33;;;2.47;;
8411;SDS011;4243;49.296;11.348;2023-04-03T14:37:55;114.40;;;2.47;;
8411;SDS011;4243;49.296;11.348;2023-04-03T14:40:25;116.07;;;2.50;;
8411;SDS011;4243;49.296;11.348;2023-04-03T14:42:53;115.80;;;2.40;;
8411;SDS011;4243;49.296;11.348;2023-04-03T14:45:21;115.20;;;2.50;;
8411;SDS011;4243;49.296;11.348;2023-04-03T14:47:51;115.47;;;2.20;;
8411;SDS011;4243;49.296;11.348;2023-04-03T14:50:23;115.30;;;2.30;;
8411;SDS011;4243;49.296;11.348;2023-04-03T14:52:55;115.30;;;2.20;;
8411;SDS011;4243;49.296;11.348;2023-04-03T14:55:25;115.60;;;2.20;;
8411;SDS011;4243;49.296;11.348;2023-04-03T14:57:53;115.67;;;2.30;;
8411;SDS011;4243;49.296;11.348;2023-04-03T15:00:21;115.93;;;2.53;;
8411;SDS011;4243;49.296;11.348;2023-04-03T15:02:49;115.50;;;2.40;;
8411;SDS011;4243;49.296;11.348;2023-04-03T15:05:16;115.63;;;2.37;;
8411;SDS011;4243;49.296;11.348;2023-04-03T15:08:03;115.80;;;2.37;;
8411;SDS011;4243;49.296;11.348;2023-04-03T15:10:31;115.80;;;2.40;;
8411;SDS011;4243;49.296;11.348;2023-04-03T15:12:58;115.80;;;2.60;;
8411;SDS011;4243;49.296;11.348;2023-04-03T15:15:28;115.20;;;2.50;;
8411;SDS011;4243;49.296;11.348;2023-04-03T15:17:56;115.57;;;2.20;;
8411;SDS011;4243;49.296;11.348;2023-04-03T15:20:25;115.53;;;2.37;;
8411;SDS011;4243;49.296;11.348;2023-04-03T15:22:56;115.50;;;2.40;;
8411;SDS011;4243;49.296;11.348;2023-04-03T15:25:26;115.50;;;2.50;;
8411;SDS011;4243;49.296;11.348;2023-04-03T15:27:55;115.40;;;2.50;;
8411;SDS011;4243;49.296;11.348;2023-04-03T15:30:23;115.70;;;2.40;;
8411;SDS011;4243;49.296;11.348;2023-04-03T15:32:50;116.03;;;2.60;;
8411;SDS011;4243;49.296;11.348;2023-04-03T15:35:19;116.03;;;2.40;;
8411;SDS011;4243;49.296;11.348;2023-04-03T15:37:47;115.57;;;2.40;;
8411;SDS011;4243;49.296;11.348;2023-04-03T15:40:14;115.27;;;2.33;;
8411;SDS011;4243;49.296;11.348;2023-04-03T15:42:41;115.00;;;2.30;;
8411;SDS011;4243;49.296;11.348;2023-04-03T15:45:09;115.47;;;2.40;;
8411;SDS011;4243;49.296;11.348;2023-04-03T15:47:36;115.30;;;2.50;;
8411;SDS011;4243;49.296;11.348;2023-04-03T15:50:05;115.97;;;2.43;;
8411;SDS011;4243;49.296;11.348;2023-04-03T15:52:34;116.07;;;2.70;;
8411;SDS011;4243;49.296;11.348;2023-04-03T15:55:02;115.57;;;2.60;;
8411;SDS011;4243;49.296;11.348;2023-04-03T15:57:30;116.57;;;2.70;;
8411;SDS011;4243;49.296;11.348;2023-04-03T16:00:03;115.40;;;2.57;;
8411;SDS011;4243;49.296;11.348;2023-04-03T16:02:32;116.30;;;2.60;;
8411;SDS011;4243;49.296;11.348;2023-04-03T16:05:00;116.40;;;2.67;;
8411;SDS011;4243;49.296;11.348;2023-04-03T16:07:28;116.20;;;2.60;;
8411;SDS011;4243;49.296;11.348;2023-04-03T16:09:56;116.00;;;2.60;;
8411;SDS011;4243;49.296;11.348;2023-04-03T16:12:23;117.07;;;2.70;;
8411;SDS011;4243;49.296;11.348;2023-04-03T16:14:50;116.67;;;2.60;;
8411;SDS011;4243;49.296;11.348;2023-04-03T16:17:17;116.20;;;2.70;;
8411;SDS011;4243;49.296;11.348;2023-04-03T16:19:44;117.00;;;2.63;;
8411;SDS011;4243;49.296;11.348;2023-04-03T16:22:11;116.30;;;2.60;;
8411;SDS011;4243;49.296;11.348;2023-04-03T16:24:39;116.80;;;2.63;;
8411;SDS011;4243;49.296;11.348;2023-04-03T16:27:06;116.00;;;2.63;;
8411;SDS011;4243;49.296;11.348;2023-04-03T16:29:33;116.50;;;2.60;;
8411;SDS011;4243;49.296;11.348;2023-04-03T16:32:00;116.40;;;2.60;;
8411;SDS011;4243;49.296;11.348;2023-04-03T16:34:28;116.27;;;2.70;;
8411;SDS011;4243;49.296;11.348;2023-04-03T16:36:58;116.07;;;2.77;;
8411;SDS011;4243;49.296;11.348;2023-04-03T16:39:26;116.40;;;2.73;;
8411;SDS011;4243;49.296;11.348;2023-04-03T16:41:53;116.20;;;2.70;;
8411;SDS011;4243;49.296;11.348;2023-04-03T16:44:21;115.37;;;2.80;;
8411;SDS011;4243;49.296;11.348;2023-04-03T16:46:48;116.33;;;2.73;;
8411;SDS011;4243;49.296;11.348;2023-04-03T16:49:15;115.00;;;2.80;;
8411;SDS011;4243;49.296;11.348;2023-04-03T16:51:42;116.20;;;2.70;;
8411;SDS011;4243;49.296;11.348;2023-04-03T16:54:09;115.20;;;2.73;;
8411;SDS011;4243;49.296;11.348;2023-04-03T16:56:39;116.07;;;2.70;;